sensor_id;sensor_type;location;lat;lon;timestamp;pressure;altitude;pressure_sealevel;temperature;humidity
60897;BME280;46749;32.932;-117.130;2023-02-17T00:01:18;101875.03;;;14.54;47.27
60897;BME280;46749;32.932;-117.130;2023-02-17T00:03:45;101875.94;;;14.54;47.18
60897;BME280;46749;32.932;-117.130;2023-02-17T00:06:14;101864.59;;;14.54;47.26
60897;BME280;46749;32.932;-117.130;2023-02-17T00:08:40;101866.34;;;14.55;47.19
60897;BME280;46749;32.932;-117.130;2023-02-17T00:11:07;101859.34;;;14.54;47.22
60897;BME280;46749;32.932;-117.130;2023-02-17T00:13:33;101864.59;;;14.54;47.26
60897;BME280;46749;32.932;-117.130;2023-02-17T00:16:05;101861.13;;;14.55;47.27
60897;BME280;46749;32.932;-117.130;2023-02-17T00:18:31;101851.50;;;14.54;47.27
60897;BME280;46749;32.932;-117.130;2023-02-17T00:20:57;101857.63;;;14.54;47.33
60897;BME280;46749;32.932;-117.130;2023-02-17T00:23:24;101858.47;;;14.53;47.15
60897;BME280;46749;32.932;-117.130;2023-02-17T00:25:50;101854.13;;;14.54;47.31
60897;BME280;46749;32.932;-117.130;2023-02-17T00:28:16;101860.25;;;14.54;47.45
60897;BME280;46749;32.932;-117.130;2023-02-17T00:30:42;101859.34;;;14.54;47.26
60897;BME280;46749;32.932;-117.130;2023-02-17T00:33:08;101852.41;;;14.54;47.08
60897;BME280;46749;32.932;-117.130;2023-02-17T00:35:38;101851.50;;;14.54;47.01
60897;BME280;46749;32.932;-117.130;2023-02-17T00:38:05;101851.50;;;14.54;47.37
60897;BME280;46749;32.932;-117.130;2023-02-17T00:40:32;101844.56;;;14.54;47.37
60897;BME280;46749;32.932;-117.130;2023-02-17T00:42:58;101848.00;;;14.53;47.17
60897;BME280;46749;32.932;-117.130;2023-02-17T00:45:24;101835.81;;;14.54;47.14
60897;BME280;46749;32.932;-117.130;2023-02-17T00:47:50;101843.66;;;14.54;47.37
60897;BME280;46749;32.932;-117.130;2023-02-17T00:50:16;101835.81;;;14.54;47.24
60897;BME280;46749;32.932;-117.130;2023-02-17T00:52:43;101843.66;;;14.54;47.32
60897;BME280;46749;32.932;-117.130;2023-02-17T00:55:09;101837.56;;;14.53;47.14
60897;BME280;46749;32.932;-117.130;2023-02-17T00:57:35;101834.94;;;14.53;47.12
60897;BME280;46749;32.932;-117.130;2023-02-17T01:00:02;101838.44;;;14.54;47.23
60897;BME280;46749;32.932;-117.130;2023-02-17T01:02:28;101835.78;;;14.52;47.31
60897;BME280;46749;32.932;-117.130;2023-02-17T01:04:55;101837.56;;;14.53;47.19
60897;BME280;46749;32.932;-117.130;2023-02-17T01:07:21;101834.94;;;14.53;47.30
60897;BME280;46749;32.932;-117.130;2023-02-17T01:09:47;101829.72;;;14.53;46.95
60897;BME280;46749;32.932;-117.130;2023-02-17T01:12:13;101838.44;;;14.54;47.08
60897;BME280;46749;32.932;-117.130;2023-02-17T01:14:39;101827.97;;;14.54;47.15
60897;BME280;46749;32.932;-117.130;2023-02-17T01:17:06;101827.94;;;14.52;47.31
60897;BME280;46749;32.932;-117.130;2023-02-17T01:19:32;101827.09;;;14.53;47.27
60897;BME280;46749;32.932;-117.130;2023-02-17T01:21:58;101825.31;;;14.52;47.17
60897;BME280;46749;32.932;-117.130;2023-02-17T01:24:24;101826.22;;;14.53;47.24
60897;BME280;46749;32.932;-117.130;2023-02-17T01:26:51;101820.97;;;14.53;47.10
60897;BME280;46749;32.932;-117.130;2023-02-17T01:29:17;101822.72;;;14.52;47.14
60897;BME280;46749;32.932;-117.130;2023-02-17T01:31:44;101820.09;;;14.52;47.12
60897;BME280;46749;32.932;-117.130;2023-02-17T01:34:10;101813.97;;;14.52;47.08
60897;BME280;46749;32.932;-117.130;2023-02-17T01:36:37;101816.59;;;14.52;47.28
60897;BME280;46749;32.932;-117.130;2023-02-17T01:39:03;101808.75;;;14.52;47.22
60897;BME280;46749;32.932;-117.130;2023-02-17T01:41:29;101807.81;;;14.51;47.40
60897;BME280;46749;32.932;-117.130;2023-02-17T01:44:11;101801.72;;;14.51;47.15
60897;BME280;46749;32.932;-117.130;2023-02-17T01:46:41;101803.53;;;14.52;47.21
60897;BME280;46749;32.932;-117.130;2023-02-17T01:49:34;101803.53;;;14.52;47.23
60897;BME280;46749;32.932;-117.130;2023-02-17T01:52:21;101813.97;;;14.52;47.21
60897;BME280;46749;32.932;-117.130;2023-02-17T01:54:56;101810.53;;;14.53;47.18
60897;BME280;46749;32.932;-117.130;2023-02-17T01:57:26;101813.19;;;14.54;47.15
60897;BME280;46749;32.932;-117.130;2023-02-17T01:59:55;101810.63;;;14.56;47.49
60897;BME280;46749;32.932;-117.130;2023-02-17T02:02:22;101816.78;;;14.58;47.43
60897;BME280;46749;32.932;-117.130;2023-02-17T02:04:50;101819.53;;;14.61;47.47
60897;BME280;46749;32.932;-117.130;2023-02-17T02:07:25;101817.84;;;14.63;47.91
60897;BME280;46749;32.932;-117.130;2023-02-17T02:09:57;101813.59;;;14.65;47.84
60897;BME280;46749;32.932;-117.130;2023-02-17T02:12:33;101821.50;;;14.67;48.19
60897;BME280;46749;32.932;-117.130;2023-02-17T02:15:08;101815.47;;;14.69;48.13
60897;BME280;46749;32.932;-117.130;2023-02-17T02:20:32;101826.06;;;14.72;48.25
60897;BME280;46749;32.932;-117.130;2023-02-17T02:29:29;101823.53;;;14.75;48.59
60897;BME280;46749;32.932;-117.130;2023-02-17T02:34:51;101834.13;;;14.78;48.68
60897;BME280;46749;32.932;-117.130;2023-02-17T02:37:28;101832.34;;;14.77;48.85
60897;BME280;46749;32.932;-117.130;2023-02-17T02:40:00;101835.03;;;14.79;49.05
60897;BME280;46749;32.932;-117.130;2023-02-17T02:42:29;101832.44;;;14.80;48.75
60897;BME280;46749;32.932;-117.130;2023-02-17T02:44:56;101829.88;;;14.82;48.66
60897;BME280;46749;32.932;-117.130;2023-02-17T02:47:50;101829.00;;;14.81;48.88
60897;BME280;46749;32.932;-117.130;2023-02-17T02:58:25;101837.06;;;14.88;48.93
60897;BME280;46749;32.932;-117.130;2023-02-17T03:06:35;101845.81;;;14.88;49.03
60897;BME280;46749;32.932;-117.130;2023-02-17T03:09:23;101844.97;;;14.89;48.96
60897;BME280;46749;32.932;-117.130;2023-02-17T03:11:50;101839.81;;;14.91;48.95
60897;BME280;46749;32.932;-117.130;2023-02-17T03:14:20;101835.47;;;14.91;49.03
60897;BME280;46749;32.932;-117.130;2023-02-17T03:16:47;101836.34;;;14.92;49.37
60897;BME280;46749;32.932;-117.130;2023-02-17T03:19:16;101848.59;;;14.93;49.19
60897;BME280;46749;32.932;-117.130;2023-02-17T03:22:07;101842.47;;;14.92;49.06
60897;BME280;46749;32.932;-117.130;2023-02-17T03:24:35;101835.59;;;14.96;49.18
60897;BME280;46749;32.932;-117.130;2023-02-17T03:27:01;101836.44;;;14.95;49.00
60897;BME280;46749;32.932;-117.130;2023-02-17T03:29:27;101836.44;;;14.95;49.15
60897;BME280;46749;32.932;-117.130;2023-02-17T03:31:54;101835.56;;;14.94;49.12
60897;BME280;46749;32.932;-117.130;2023-02-17T03:34:20;101838.22;;;14.96;49.33
60897;BME280;46749;32.932;-117.130;2023-02-17T03:36:46;101826.13;;;14.98;49.15
60897;BME280;46749;32.932;-117.130;2023-02-17T03:39:12;101828.72;;;14.98;49.05
60897;BME280;46749;32.932;-117.130;2023-02-17T03:41:39;101822.66;;;14.99;49.35
60897;BME280;46749;32.932;-117.130;2023-02-17T03:44:05;101826.13;;;14.98;49.22
60897;BME280;46749;32.932;-117.130;2023-02-17T03:46:31;101823.50;;;14.98;49.30
60897;BME280;46749;32.932;-117.130;2023-02-17T03:48:57;101822.66;;;14.99;49.25
60897;BME280;46749;32.932;-117.130;2023-02-17T03:51:24;101822.69;;;15.00;49.22
60897;BME280;46749;32.932;-117.130;2023-02-17T03:53:51;101820.09;;;15.00;49.27
60897;BME280;46749;32.932;-117.130;2023-02-17T03:56:17;101820.97;;;15.01;49.46
60897;BME280;46749;32.932;-117.130;2023-02-17T03:58:44;101825.38;;;15.02;49.30
60897;BME280;46749;32.932;-117.130;2023-02-17T04:01:11;101827.97;;;15.02;49.21
60897;BME280;46749;32.932;-117.130;2023-02-17T04:03:38;101829.78;;;15.03;48.98
60897;BME280;46749;32.932;-117.130;2023-02-17T04:06:05;101818.50;;;15.04;49.23
60897;BME280;46749;32.932;-117.130;2023-02-17T04:08:32;101827.22;;;15.04;49.14
60897;BME280;46749;32.932;-117.130;2023-02-17T04:11:00;101822.00;;;15.04;49.43
60897;BME280;46749;32.932;-117.130;2023-02-17T04:13:27;101821.09;;;15.04;49.50
60897;BME280;46749;32.932;-117.130;2023-02-17T04:15:54;101825.44;;;15.03;49.53
60897;BME280;46749;32.932;-117.130;2023-02-17T04:18:21;101823.66;;;15.02;49.32
60897;BME280;46749;32.932;-117.130;2023-02-17T04:20:49;101820.13;;;15.02;49.29
60897;BME280;46749;32.932;-117.130;2023-02-17T04:23:16;101831.44;;;15.01;49.41
60897;BME280;46749;32.932;-117.130;2023-02-17T04:25:43;101825.31;;;15.00;49.42
60897;BME280;46749;32.932;-117.130;2023-02-17T04:28:10;101822.66;;;14.99;49.12
60897;BME280;46749;32.932;-117.130;2023-02-17T04:30:36;101824.44;;;15.00;49.04
60897;BME280;46749;32.932;-117.130;2023-02-17T04:33:04;101822.66;;;14.99;49.12
60897;BME280;46749;32.932;-117.130;2023-02-17T04:35:30;101820.88;;;14.98;48.91
60897;BME280;46749;32.932;-117.130;2023-02-17T04:37:56;101823.44;;;14.96;48.92
60897;BME280;46749;32.932;-117.130;2023-02-17T04:40:23;101825.16;;;14.96;48.76
60897;BME280;46749;32.932;-117.130;2023-02-17T04:42:49;101827.75;;;14.96;49.03
60897;BME280;46749;32.932;-117.130;2023-02-17T04:45:15;101828.59;;;14.95;49.06
60897;BME280;46749;32.932;-117.130;2023-02-17T04:47:41;101832.09;;;14.95;49.03
60897;BME280;46749;32.932;-117.130;2023-02-17T04:50:08;101839.91;;;14.94;48.80
60897;BME280;46749;32.932;-117.130;2023-02-17T04:52:35;101838.13;;;14.93;48.98
60897;BME280;46749;32.932;-117.130;2023-02-17T04:55:03;101833.78;;;14.93;48.96
60897;BME280;46749;32.932;-117.130;2023-02-17T04:57:29;101832.00;;;14.92;48.84
60897;BME280;46749;32.932;-117.130;2023-02-17T04:59:55;101825.91;;;14.92;48.75
60897;BME280;46749;32.932;-117.130;2023-02-17T05:02:23;101825.91;;;14.92;48.66
60897;BME280;46749;32.932;-117.130;2023-02-17T05:04:52;101825.84;;;14.90;48.96
60897;BME280;46749;32.932;-117.130;2023-02-17T05:07:19;101827.56;;;14.90;48.79
60897;BME280;46749;32.932;-117.130;2023-02-17T05:09:45;101829.25;;;14.89;48.73
60897;BME280;46749;32.932;-117.130;2023-02-17T05:12:11;101825.75;;;14.89;48.67
60897;BME280;46749;32.932;-117.130;2023-02-17T05:14:37;101825.75;;;14.89;48.64
60897;BME280;46749;32.932;-117.130;2023-02-17T05:17:04;101832.81;;;14.90;48.88
60897;BME280;46749;32.932;-117.130;2023-02-17T05:19:30;101827.66;;;14.93;48.85
60897;BME280;46749;32.932;-117.130;2023-02-17T05:22:16;101825.94;;;14.93;48.44
60897;BME280;46749;32.932;-117.130;2023-02-17T05:24:42;101828.59;;;14.95;49.22
60897;BME280;46749;32.932;-117.130;2023-02-17T05:27:09;101831.22;;;14.95;49.15
60897;BME280;46749;32.932;-117.130;2023-02-17T05:29:35;101837.34;;;14.95;48.74
60897;BME280;46749;32.932;-117.130;2023-02-17T05:32:17;101837.28;;;14.94;48.93
60897;BME280;46749;32.932;-117.130;2023-02-17T05:34:49;101840.84;;;14.96;48.91
60897;BME280;46749;32.932;-117.130;2023-02-17T05:37:15;101841.69;;;14.95;49.05
60897;BME280;46749;32.932;-117.130;2023-02-17T05:39:42;101836.44;;;14.95;49.18
60897;BME280;46749;32.932;-117.130;2023-02-17T05:42:31;101840.78;;;14.94;49.04
60897;BME280;46749;32.932;-117.130;2023-02-17T05:44:58;101850.38;;;14.94;49.07
60897;BME280;46749;32.932;-117.130;2023-02-17T05:47:24;101852.97;;;14.94;49.40
60897;BME280;46749;32.932;-117.130;2023-02-17T05:49:51;101847.81;;;14.95;49.24
60897;BME280;46749;32.932;-117.130;2023-02-17T05:52:17;101854.75;;;14.95;49.07
60897;BME280;46749;32.932;-117.130;2023-02-17T05:54:43;101859.16;;;14.96;48.99
60897;BME280;46749;32.932;-117.130;2023-02-17T05:57:10;101848.69;;;14.96;49.55
60897;BME280;46749;32.932;-117.130;2023-02-17T05:59:36;101854.84;;;14.96;49.34
60897;BME280;46749;32.932;-117.130;2023-02-17T06:02:20;101852.22;;;14.96;49.31
60897;BME280;46749;32.932;-117.130;2023-02-17T06:04:47;101846.16;;;14.97;49.15
60897;BME280;46749;32.932;-117.130;2023-02-17T06:07:13;101846.16;;;14.97;49.07
60897;BME280;46749;32.932;-117.130;2023-02-17T06:09:39;101850.50;;;14.97;49.26
60897;BME280;46749;32.932;-117.130;2023-02-17T06:12:05;101847.81;;;14.95;49.30
60897;BME280;46749;32.932;-117.130;2023-02-17T06:14:31;101853.91;;;14.96;49.48
60897;BME280;46749;32.932;-117.130;2023-02-17T06:16:58;101844.38;;;14.96;49.43
60897;BME280;46749;32.932;-117.130;2023-02-17T06:19:25;101852.22;;;14.96;49.25
60897;BME280;46749;32.932;-117.130;2023-02-17T06:24:35;101842.69;;;14.98;49.63
60897;BME280;46749;32.932;-117.130;2023-02-17T06:27:02;101852.28;;;14.98;49.49
60897;BME280;46749;32.932;-117.130;2023-02-17T06:29:28;101841.75;;;14.96;49.58
60897;BME280;46749;32.932;-117.130;2023-02-17T06:31:54;101838.22;;;14.96;49.47
60897;BME280;46749;32.932;-117.130;2023-02-17T06:34:20;101848.69;;;14.96;49.58
60897;BME280;46749;32.932;-117.130;2023-02-17T06:36:47;101839.91;;;14.94;49.40
60897;BME280;46749;32.932;-117.130;2023-02-17T06:39:13;101839.03;;;14.93;49.38
60897;BME280;46749;32.932;-117.130;2023-02-17T06:41:39;101849.47;;;14.93;49.25
60897;BME280;46749;32.932;-117.130;2023-02-17T06:44:07;101848.59;;;14.93;49.19
60897;BME280;46749;32.932;-117.130;2023-02-17T06:46:34;101840.66;;;14.90;49.32
60897;BME280;46749;32.932;-117.130;2023-02-17T06:49:00;101850.28;;;14.91;49.16
60897;BME280;46749;32.932;-117.130;2023-02-17T06:51:27;101848.50;;;14.90;48.92
60897;BME280;46749;32.932;-117.130;2023-02-17T06:53:54;101851.91;;;14.89;48.89
60897;BME280;46749;32.932;-117.130;2023-02-17T06:56:20;101847.56;;;14.89;49.23
60897;BME280;46749;32.932;-117.130;2023-02-17T06:58:46;101851.03;;;14.88;49.05
60897;BME280;46749;32.932;-117.130;2023-02-17T07:01:22;101851.88;;;14.87;48.99
60897;BME280;46749;32.932;-117.130;2023-02-17T07:03:51;101850.09;;;14.86;48.87
60897;BME280;46749;32.932;-117.130;2023-02-17T07:06:18;101846.59;;;14.86;49.06
60897;BME280;46749;32.932;-117.130;2023-02-17T07:08:44;101845.66;;;14.83;49.07
60897;BME280;46749;32.932;-117.130;2023-02-17T07:11:13;101845.66;;;14.83;48.88
60897;BME280;46749;32.932;-117.130;2023-02-17T07:13:40;101843.84;;;14.82;48.70
60897;BME280;46749;32.932;-117.130;2023-02-17T07:16:08;101840.34;;;14.82;48.82
60897;BME280;46749;32.932;-117.130;2023-02-17T07:18:35;101846.47;;;14.82;48.81
60897;BME280;46749;32.932;-117.130;2023-02-17T07:21:03;101848.97;;;14.79;48.56
60897;BME280;46749;32.932;-117.130;2023-02-17T07:23:30;101855.94;;;14.79;48.65
60897;BME280;46749;32.932;-117.130;2023-02-17T07:26:01;101861.16;;;14.79;48.69
60897;BME280;46749;32.932;-117.130;2023-02-17T07:28:27;101860.28;;;14.78;48.69
60897;BME280;46749;32.932;-117.130;2023-02-17T07:30:54;101859.41;;;14.78;48.57
60897;BME280;46749;32.932;-117.130;2023-02-17T07:33:20;101861.94;;;14.76;48.50
60897;BME280;46749;32.932;-117.130;2023-02-17T07:35:46;101860.16;;;14.75;48.61
60897;BME280;46749;32.932;-117.130;2023-02-17T07:38:12;101858.38;;;14.74;48.63
60897;BME280;46749;32.932;-117.130;2023-02-17T07:40:39;101864.44;;;14.73;48.87
60897;BME280;46749;32.932;-117.130;2023-02-17T07:43:05;101860.94;;;14.73;48.52
60897;BME280;46749;32.932;-117.130;2023-02-17T07:45:32;101862.66;;;14.72;48.62
60897;BME280;46749;32.932;-117.130;2023-02-17T07:47:58;101868.72;;;14.71;48.67
60897;BME280;46749;32.932;-117.130;2023-02-17T07:50:24;101860.00;;;14.71;48.48
60897;BME280;46749;32.932;-117.130;2023-02-17T07:52:51;101859.09;;;14.70;48.48
60897;BME280;46749;32.932;-117.130;2023-02-17T07:55:17;101859.91;;;14.69;48.48
60897;BME280;46749;32.932;-117.130;2023-02-17T07:57:43;101866.88;;;14.69;48.55
60897;BME280;46749;32.932;-117.130;2023-02-17T08:00:09;101867.72;;;14.68;48.44
60897;BME280;46749;32.932;-117.130;2023-02-17T08:02:36;101864.22;;;14.67;48.54
60897;BME280;46749;32.932;-117.130;2023-02-17T08:05:02;101859.81;;;14.66;48.44
60897;BME280;46749;32.932;-117.130;2023-02-17T08:07:28;101861.53;;;14.66;48.73
60897;BME280;46749;32.932;-117.130;2023-02-17T08:09:54;101862.38;;;14.65;48.55
60897;BME280;46749;32.932;-117.130;2023-02-17T08:12:39;101863.28;;;14.65;48.52
60897;BME280;46749;32.932;-117.130;2023-02-17T08:15:24;101858.84;;;14.64;48.38
60897;BME280;46749;32.932;-117.130;2023-02-17T08:17:50;101857.97;;;14.64;47.97
60897;BME280;46749;32.932;-117.130;2023-02-17T08:20:18;101858.75;;;14.61;48.54
60897;BME280;46749;32.932;-117.130;2023-02-17T08:22:44;101856.13;;;14.61;48.33
60897;BME280;46749;32.932;-117.130;2023-02-17T08:25:10;101853.47;;;14.60;48.37
60897;BME280;46749;32.932;-117.130;2023-02-17T08:27:36;101861.22;;;14.58;48.73
60897;BME280;46749;32.932;-117.130;2023-02-17T08:30:02;101862.97;;;14.57;48.39
60897;BME280;46749;32.932;-117.130;2023-02-17T08:32:29;101860.34;;;14.57;48.39
60897;BME280;46749;32.932;-117.130;2023-02-17T08:34:55;101865.53;;;14.56;48.66
60897;BME280;46749;32.932;-117.130;2023-02-17T08:37:22;101858.50;;;14.55;48.47
60897;BME280;46749;32.932;-117.130;2023-02-17T08:39:48;101857.63;;;14.54;48.25
60897;BME280;46749;32.932;-117.130;2023-02-17T08:42:14;101854.06;;;14.52;48.38
60897;BME280;46749;32.932;-117.130;2023-02-17T08:44:42;101850.56;;;14.52;48.42
60897;BME280;46749;32.932;-117.130;2023-02-17T08:47:08;101849.66;;;14.51;48.35
60897;BME280;46749;32.932;-117.130;2023-02-17T08:49:35;101854.00;;;14.51;48.40
60897;BME280;46749;32.932;-117.130;2023-02-17T08:52:01;101859.22;;;14.51;48.35
60897;BME280;46749;32.932;-117.130;2023-02-17T08:54:28;101853.09;;;14.50;48.22
60897;BME280;46749;32.932;-117.130;2023-02-17T08:56:54;101857.41;;;14.48;48.56
60897;BME280;46749;32.932;-117.130;2023-02-17T08:59:21;101857.41;;;14.48;48.32
60897;BME280;46749;32.932;-117.130;2023-02-17T09:01:47;101857.34;;;14.47;48.16
60897;BME280;46749;32.932;-117.130;2023-02-17T09:04:14;101856.47;;;14.46;48.42
60897;BME280;46749;32.932;-117.130;2023-02-17T09:06:49;101851.09;;;14.45;48.31
60897;BME280;46749;32.932;-117.130;2023-02-17T09:09:19;101844.09;;;14.44;48.42
60897;BME280;46749;32.932;-117.130;2023-02-17T09:11:47;101847.56;;;14.43;48.21
60897;BME280;46749;32.932;-117.130;2023-02-17T09:14:13;101847.56;;;14.43;48.39
60897;BME280;46749;32.932;-117.130;2023-02-17T09:16:39;101847.56;;;14.43;48.34
60897;BME280;46749;32.932;-117.130;2023-02-17T09:19:06;101847.50;;;14.41;48.20
60897;BME280;46749;32.932;-117.130;2023-02-17T09:21:32;101841.38;;;14.41;48.25
60897;BME280;46749;32.932;-117.130;2023-02-17T09:23:58;101845.72;;;14.40;48.40
60897;BME280;46749;32.932;-117.130;2023-02-17T09:26:24;101848.25;;;14.39;48.31
60897;BME280;46749;32.932;-117.130;2023-02-17T09:28:51;101845.59;;;14.37;48.15
60897;BME280;46749;32.932;-117.130;2023-02-17T09:31:23;101844.69;;;14.37;48.31
60897;BME280;46749;32.932;-117.130;2023-02-17T09:33:51;101839.44;;;14.35;48.32
60897;BME280;46749;32.932;-117.130;2023-02-17T09:36:22;101845.50;;;14.34;48.28
60897;BME280;46749;32.932;-117.130;2023-02-17T09:38:49;101840.25;;;14.34;48.14
60897;BME280;46749;32.932;-117.130;2023-02-17T09:41:26;101833.25;;;14.33;48.44
60897;BME280;46749;32.932;-117.130;2023-02-17T09:43:57;101842.78;;;14.32;48.24
60897;BME280;46749;32.932;-117.130;2023-02-17T09:46:28;101835.78;;;14.31;48.19
60897;BME280;46749;32.932;-117.130;2023-02-17T09:48:58;101829.63;;;14.29;48.29
60897;BME280;46749;32.932;-117.130;2023-02-17T09:51:33;101830.50;;;14.30;48.39
60897;BME280;46749;32.932;-117.130;2023-02-17T09:54:13;101820.00;;;14.28;48.32
60897;BME280;46749;32.932;-117.130;2023-02-17T09:56:43;101821.72;;;14.28;48.18
60897;BME280;46749;32.932;-117.130;2023-02-17T09:59:26;101827.78;;;14.27;48.14
60897;BME280;46749;32.932;-117.130;2023-02-17T10:01:54;101832.09;;;14.26;48.12
60897;BME280;46749;32.932;-117.130;2023-02-17T10:04:27;101825.94;;;14.24;48.20
60897;BME280;46749;32.932;-117.130;2023-02-17T10:07:04;101819.78;;;14.22;48.19
60897;BME280;46749;32.932;-117.130;2023-02-17T10:09:36;101827.59;;;14.22;48.15
60897;BME280;46749;32.932;-117.130;2023-02-17T10:12:11;101823.28;;;14.23;48.13
60897;BME280;46749;32.932;-117.130;2023-02-17T10:14:49;101820.59;;;14.21;48.22
60897;BME280;46749;32.932;-117.130;2023-02-17T10:17:39;101828.44;;;14.21;48.14
60897;BME280;46749;32.932;-117.130;2023-02-17T10:20:15;101820.53;;;14.20;48.29
60897;BME280;46749;32.932;-117.130;2023-02-17T10:22:46;101824.84;;;14.19;48.27
60897;BME280;46749;32.932;-117.130;2023-02-17T10:26:05;101818.75;;;14.19;48.15
60897;BME280;46749;32.932;-117.130;2023-02-17T10:28:20;101814.31;;;14.16;48.12
60897;BME280;46749;32.932;-117.130;2023-02-17T10:33:52;101807.31;;;14.15;48.27
60897;BME280;46749;32.932;-117.130;2023-02-17T10:36:35;101800.31;;;14.14;48.18
60897;BME280;46749;32.932;-117.130;2023-02-17T10:40:25;101799.31;;;14.12;48.15
60897;BME280;46749;32.932;-117.130;2023-02-17T10:42:37;101789.72;;;14.11;48.14
60897;BME280;46749;32.932;-117.130;2023-02-17T10:48:08;101781.81;;;14.10;48.20
60897;BME280;46749;32.932;-117.130;2023-02-17T10:50:39;101791.38;;;14.09;48.29
60897;BME280;46749;32.932;-117.130;2023-02-17T10:53:15;101779.16;;;14.08;48.16
60897;BME280;46749;32.932;-117.130;2023-02-17T11:01:15;101777.34;;;14.07;48.21
60897;BME280;46749;32.932;-117.130;2023-02-17T11:03:42;101766.84;;;14.06;48.09
60897;BME280;46749;32.932;-117.130;2023-02-17T11:06:20;101778.09;;;14.03;48.25
60897;BME280;46749;32.932;-117.130;2023-02-17T11:08:58;101771.09;;;14.02;48.16
60897;BME280;46749;32.932;-117.130;2023-02-17T11:11:27;101772.78;;;14.01;48.24
60897;BME280;46749;32.932;-117.130;2023-02-17T11:16:55;101769.38;;;14.02;48.27
60897;BME280;46749;32.932;-117.130;2023-02-17T11:19:27;101764.19;;;14.04;48.16
60897;BME280;46749;32.932;-117.130;2023-02-17T11:21:57;101767.56;;;14.01;48.27
60897;BME280;46749;32.932;-117.130;2023-02-17T11:24:25;101768.47;;;14.02;48.17
60897;BME280;46749;32.932;-117.130;2023-02-17T11:27:03;101765.91;;;14.03;48.37
60897;BME280;46749;32.932;-117.130;2023-02-17T11:29:30;101759.84;;;14.04;48.05
60897;BME280;46749;32.932;-117.130;2023-02-17T11:32:06;101754.56;;;14.03;48.44
60897;BME280;46749;32.932;-117.130;2023-02-17T11:34:38;101761.53;;;14.02;48.22
60897;BME280;46749;32.932;-117.130;2023-02-17T11:39:43;101750.09;;;14.00;48.13
60897;BME280;46749;32.932;-117.130;2023-02-17T11:42:26;101749.22;;;14.00;48.33
60897;BME280;46749;32.932;-117.130;2023-02-17T11:44:57;101754.44;;;14.00;48.44
60897;BME280;46749;32.932;-117.130;2023-02-17T11:47:37;101751.78;;;13.98;48.25
60897;BME280;46749;32.932;-117.130;2023-02-17T11:58:42;101731.59;;;13.94;48.39
60897;BME280;46749;32.932;-117.130;2023-02-17T12:01:31;101736.75;;;13.93;48.25
60897;BME280;46749;32.932;-117.130;2023-02-17T12:04:18;101738.47;;;13.92;48.35
60897;BME280;46749;32.932;-117.130;2023-02-17T12:06:57;101738.53;;;13.94;48.23
60897;BME280;46749;32.932;-117.130;2023-02-17T12:09:55;101730.69;;;13.94;48.28
60897;BME280;46749;32.932;-117.130;2023-02-17T12:12:32;101730.69;;;13.94;48.49
60897;BME280;46749;32.932;-117.130;2023-02-17T12:15:10;101736.75;;;13.93;48.47
60897;BME280;46749;32.932;-117.130;2023-02-17T12:21:34;101727.16;;;13.92;48.65
60897;BME280;46749;32.932;-117.130;2023-02-17T12:28:58;101716.56;;;13.89;48.42
60897;BME280;46749;32.932;-117.130;2023-02-17T12:31:39;101729.63;;;13.89;48.55
60897;BME280;46749;32.932;-117.130;2023-02-17T12:37:05;101726.06;;;13.87;48.42
60897;BME280;46749;32.932;-117.130;2023-02-17T12:39:43;101723.47;;;13.87;48.42
60897;BME280;46749;32.932;-117.130;2023-02-17T12:44:56;101720.91;;;13.88;48.58
60897;BME280;46749;32.932;-117.130;2023-02-17T12:47:54;101722.63;;;13.88;48.41
60897;BME280;46749;32.932;-117.130;2023-02-17T12:53:32;101720.03;;;13.88;48.59
60897;BME280;46749;32.932;-117.130;2023-02-17T12:56:02;101713.84;;;13.86;48.52
60897;BME280;46749;32.932;-117.130;2023-02-17T12:58:29;101715.63;;;13.87;48.53
60897;BME280;46749;32.932;-117.130;2023-02-17T13:01:12;101709.47;;;13.85;48.50
60897;BME280;46749;32.932;-117.130;2023-02-17T13:03:40;101712.97;;;13.85;48.58
60897;BME280;46749;32.932;-117.130;2023-02-17T13:06:31;101707.69;;;13.84;48.50
60897;BME280;46749;32.932;-117.130;2023-02-17T13:11:51;101706.81;;;13.83;48.52
60897;BME280;46749;32.932;-117.130;2023-02-17T13:14:37;101703.34;;;13.84;48.57
60897;BME280;46749;32.932;-117.130;2023-02-17T13:17:03;101706.03;;;13.86;48.53
60897;BME280;46749;32.932;-117.130;2023-02-17T13:19:33;101702.53;;;13.85;48.52
60897;BME280;46749;32.932;-117.130;2023-02-17T13:22:00;101697.25;;;13.84;48.78
60897;BME280;46749;32.932;-117.130;2023-02-17T13:24:34;101693.81;;;13.85;48.76
60897;BME280;46749;32.932;-117.130;2023-02-17T13:27:21;101698.97;;;13.83;48.75
60897;BME280;46749;32.932;-117.130;2023-02-17T13:32:37;101688.44;;;13.82;48.74
60897;BME280;46749;32.932;-117.130;2023-02-17T13:35:28;101697.13;;;13.81;48.66
60897;BME280;46749;32.932;-117.130;2023-02-17T13:37:55;101699.72;;;13.81;48.55
60897;BME280;46749;32.932;-117.130;2023-02-17T13:42:53;101690.16;;;13.81;48.67
60897;BME280;46749;32.932;-117.130;2023-02-17T13:45:47;101691.91;;;13.81;48.54
60897;BME280;46749;32.932;-117.130;2023-02-17T13:48:25;101691.06;;;13.82;48.66
60897;BME280;46749;32.932;-117.130;2023-02-17T13:50:56;101688.44;;;13.82;48.78
60897;BME280;46749;32.932;-117.130;2023-02-17T13:53:28;101693.63;;;13.80;48.85
60897;BME280;46749;32.932;-117.130;2023-02-17T13:56:38;101690.13;;;13.80;48.80